Time;durP1;ratioP1;P1;durP2;ratioP2;P2;SDS_P1;SDS_P2;PMS_P1;PMS_P2;Temp;Humidity;BMP_temperature;BMP_pressure;BME280_temperature;BME280_humidity;BME280_pressure;Samples;Min_cycle;Max_cycle;Signal;HPM_P1;HPM_P2
2023/12/15 00:00:33;;;;;;;68.05;30.98;;;4.40;99.90;;;;;;5093478;28;20086;-72
2023/12/15 00:02:59;;;;;;;69.85;29.70;;;4.40;99.90;;;;;;5093241;28;20031;-73
2023/12/15 00:05:24;;;;;;;73.68;31.52;;;4.40;99.90;;;;;;5093254;28;20024;-72
2023/12/15 00:07:51;;;;;;;71.93;30.67;;;;;;;;;;5093458;28;20036;-72
2023/12/15 00:10:17;;;;;;;69.22;30.35;;;4.30;99.90;;;;;;5093361;28;20038;-72
2023/12/15 00:12:42;;;;;;;66.85;30.67;;;4.40;99.90;;;;;;5093246;28;20396;-72
2023/12/15 00:15:09;;;;;;;73.35;30.63;;;4.30;99.90;;;;;;5093509;28;20493;-72
2023/12/15 00:17:34;;;;;;;75.95;31.67;;;4.20;99.90;;;;;;5093258;28;20130;-72
2023/12/15 00:20:00;;;;;;;77.43;30.73;;;4.20;99.90;;;;;;5095222;28;20032;-72
2023/12/15 00:22:25;;;;;;;76.97;29.90;;;4.30;99.90;;;;;;5097497;28;20455;-72
2023/12/15 00:24:51;;;;;;;76.43;31.20;;;4.40;99.90;;;;;;5097287;28;20031;-72
2023/12/15 00:27:16;;;;;;;74.47;32.78;;;4.40;99.90;;;;;;5097438;28;20058;-72
2023/12/15 00:29:43;;;;;;;73.15;30.40;;;;;;;;;;5097691;28;20085;-72
2023/12/15 00:32:09;;;;;;;78.75;30.58;;;4.40;99.90;;;;;;5097280;28;20456;-72
2023/12/15 00:34:34;;;;;;;76.25;30.85;;;4.50;99.90;;;;;;5096865;28;20523;-73
2023/12/15 00:37:01;;;;;;;77.72;31.17;;;;;;;;;;5096999;28;20044;-72
2023/12/15 00:39:30;;;;;;;68.43;29.42;;;;;;;;;;5097011;28;20386;-72
2023/12/15 00:41:56;;;;;;;77.15;33.10;;;4.30;99.90;;;;;;5097161;28;20481;-72
2023/12/15 00:44:21;;;;;;;74.85;31.58;;;4.60;99.90;;;;;;5097177;28;20028;-72
2023/12/15 00:46:48;;;;;;;75.47;32.25;;;;;;;;;;5097064;28;20032;-72
2023/12/15 00:49:13;;;;;;;80.75;33.03;;;4.60;99.90;;;;;;5096737;28;20065;-72
2023/12/15 00:51:39;;;;;;;86.65;34.50;;;4.60;99.90;;;;;;5096971;28;20071;-72
2023/12/15 00:54:04;;;;;;;84.60;33.95;;;4.70;99.90;;;;;;5096939;28;20046;-72
2023/12/15 00:56:30;;;;;;;80.50;33.15;;;4.70;99.90;;;;;;5096583;28;20465;-72
2023/12/15 00:58:57;;;;;;;87.55;34.15;;;;;;;;;;5096829;28;20028;-72
2023/12/15 01:01:22;;;;;;;81.20;33.42;;;4.40;99.90;;;;;;5096794;28;20024;-72
2023/12/15 01:03:48;;;;;;;72.15;31.13;;;4.80;99.90;;;;;;5096622;28;20047;-72
2023/12/15 01:06:13;;;;;;;77.47;31.52;;;4.80;99.90;;;;;;5096743;28;20069;-73
2023/12/15 01:08:39;;;;;;;74.32;30.58;;;4.80;99.90;;;;;;5096662;28;20118;-72
2023/12/15 01:11:06;;;;;;;72.53;31.10;;;;;;;;;;5096555;28;20034;-73
2023/12/15 01:13:33;;;;;;;77.25;31.77;;;4.70;99.90;;;;;;5096514;28;20539;-73
2023/12/15 01:15:59;;;;;;;71.32;31.05;;;;;;;;;;5096337;28;20055;-73
2023/12/15 01:18:25;;;;;;;78.75;30.50;;;4.70;99.90;;;;;;5096383;28;20054;-73
2023/12/15 01:20:50;;;;;;;76.75;31.10;;;4.80;99.90;;;;;;5096203;28;20020;-73
2023/12/15 01:23:16;;;;;;;73.47;29.60;;;4.80;99.90;;;;;;5096449;28;20028;-72
2023/12/15 01:25:41;;;;;;;70.07;28.70;;;4.40;99.90;;;;;;5096445;28;20037;-72
2023/12/15 01:28:07;;;;;;;71.07;30.55;;;4.80;99.90;;;;;;5096072;28;20030;-73
2023/12/15 01:30:32;;;;;;;75.35;31.00;;;4.80;99.90;;;;;;5096190;28;20405;-73
2023/12/15 01:32:58;;;;;;;74.95;29.88;;;4.70;99.90;;;;;;5095949;28;20020;-73
2023/12/15 01:35:23;;;;;;;70.68;29.30;;;4.80;99.90;;;;;;5095976;28;20062;-73
2023/12/15 01:37:49;;;;;;;73.53;28.67;;;4.70;99.90;;;;;;5095787;28;20048;-73
2023/12/15 01:40:14;;;;;;;67.75;28.98;;;5.00;99.90;;;;;;5096026;28;20052;-72
2023/12/15 01:42:40;;;;;;;66.07;28.80;;;4.80;99.90;;;;;;5095729;28;20485;-73
2023/12/15 01:45:06;;;;;;;73.70;31.40;;;4.80;99.90;;;;;;5095616;28;20043;-73
2023/12/15 01:47:32;;;;;;;74.60;29.25;;;4.80;99.90;;;;;;5095885;28;20397;-73
2023/12/15 01:49:58;;;;;;;69.97;30.38;;;5.10;99.90;;;;;;5095441;28;20021;-73
2023/12/15 01:52:23;;;;;;;73.80;31.20;;;4.50;99.90;;;;;;5095713;28;20093;-73
2023/12/15 01:54:49;;;;;;;75.10;29.92;;;4.90;99.90;;;;;;5095760;28;20039;-72
2023/12/15 01:57:15;;;;;;;74.07;32.55;;;4.90;99.90;;;;;;5095699;28;20031;-72
2023/12/15 01:59:44;;;;;;;78.00;30.60;;;4.90;99.90;;;;;;5095625;28;20089;-72
2023/12/15 02:02:11;;;;;;;83.15;31.42;;;;;;;;;;5095791;28;20024;-73
2023/12/15 02:04:39;;;;;;;71.35;30.58;;;4.90;99.90;;;;;;5095583;28;20028;-72
2023/12/15 02:07:04;;;;;;;78.25;30.10;;;5.00;99.90;;;;;;5095518;28;20028;-73
2023/12/15 02:09:31;;;;;;;66.68;28.50;;;;;;;;;;5095345;28;20035;-73
2023/12/15 02:11:56;;;;;;;75.25;29.27;;;4.90;99.90;;;;;;5095148;28;20024;-73
2023/12/15 02:14:23;;;;;;;70.13;28.50;;;5.00;99.90;;;;;;5095402;28;20168;-73
2023/12/15 02:16:48;;;;;;;71.63;27.35;;;5.00;99.90;;;;;;5095441;28;20034;-73
2023/12/15 02:19:14;;;;;;;71.93;29.63;;;;;;;;;;5095403;28;20366;-72
2023/12/15 02:21:41;;;;;;;68.50;29.65;;;;;;;;;;5095418;28;20048;-73
2023/12/15 02:24:07;;;;;;;70.90;30.27;;;;;;;;;;5095116;28;20428;-73
2023/12/15 02:26:33;;;;;;;71.35;28.55;;;;;;;;;;5095073;28;20077;-72
2023/12/15 02:28:59;;;;;;;71.65;28.67;;;;;;;;;;5095144;28;20071;-73
2023/12/15 02:31:26;;;;;;;68.65;29.83;;;;;;;;;;5094989;28;20070;-72
2023/12/15 02:33:53;;;;;;;68.82;30.08;;;5.30;99.90;;;;;;5094778;28;20446;-73
2023/12/15 02:36:21;;;;;;;71.38;30.02;;;;;;;;;;5094746;28;20416;-72
2023/12/15 02:38:47;;;;;;;69.60;28.75;;;;;;;;;;5094930;28;20056;-72
2023/12/15 02:41:13;;;;;;;79.90;31.13;;;5.30;99.90;;;;;;5094688;28;20126;-73
2023/12/15 02:43:39;;;;;;;74.68;31.08;;;5.30;99.90;;;;;;5094271;28;20071;-72
2023/12/15 02:46:05;;;;;;;77.53;32.00;;;5.20;99.90;;;;;;5094541;28;20070;-72
2023/12/15 02:48:31;;;;;;;73.22;29.70;;;5.20;99.90;;;;;;5094523;28;20024;-73
2023/12/15 02:50:57;;;;;;;74.28;31.42;;;5.20;99.90;;;;;;5094555;28;20025;-72
2023/12/15 02:53:23;;;;;;;72.10;29.35;;;5.20;99.90;;;;;;5094386;28;20035;-73
2023/12/15 02:55:49;;;;;;;74.25;30.58;;;5.20;99.90;;;;;;5094497;28;20065;-71
2023/12/15 02:58:15;;;;;;;64.75;28.88;;;5.20;99.90;;;;;;5094687;28;20098;-71
2023/12/15 03:00:41;;;;;;;64.25;29.25;;;5.20;99.90;;;;;;5094460;28;20024;-72
2023/12/15 03:03:06;;;;;;;76.38;32.00;;;5.20;99.90;;;;;;5094300;28;20020;-71
2023/12/15 03:05:32;;;;;;;74.95;29.75;;;5.20;99.90;;;;;;5094327;28;20039;-71
2023/12/15 03:07:57;;;;;;;81.80;32.67;;;5.20;99.90;;;;;;5094371;28;20389;-71
2023/12/15 03:10:23;;;;;;;81.90;34.97;;;5.20;99.90;;;;;;5094385;28;20032;-71
2023/12/15 03:12:48;;;;;;;92.15;33.90;;;5.30;99.90;;;;;;5094775;28;20024;-72
2023/12/15 03:15:14;;;;;;;81.10;34.03;;;5.30;99.90;;;;;;5094261;28;20036;-73
2023/12/15 03:17:39;;;;;;;79.38;33.65;;;5.20;99.90;;;;;;5094138;28;20059;-73
2023/12/15 03:20:07;;;;;;;77.40;33.22;;;5.30;99.90;;;;;;5094144;28;20123;-73
2023/12/15 03:22:32;;;;;;;88.72;32.80;;;5.30;99.90;;;;;;5094117;28;20020;-73
2023/12/15 03:24:58;;;;;;;79.75;32.90;;;5.30;99.90;;;;;;5094080;28;20393;-72
2023/12/15 03:27:24;;;;;;;83.63;34.88;;;5.30;99.90;;;;;;5094035;28;20028;-73
2023/12/15 03:29:50;;;;;;;96.53;37.38;;;5.30;99.90;;;;;;5094041;28;20042;-73
2023/12/15 03:32:15;;;;;;;93.72;37.60;;;5.30;99.90;;;;;;5093891;28;20052;-73
2023/12/15 03:34:41;;;;;;;103.88;39.90;;;5.30;99.90;;;;;;5093876;28;20437;-73
2023/12/15 03:37:08;;;;;;;96.03;37.67;;;5.30;99.90;;;;;;5093538;28;20177;-73
2023/12/15 03:39:34;;;;;;;98.70;37.83;;;5.30;99.90;;;;;;5093807;28;20056;-73
2023/12/15 03:42:05;;;;;;;97.03;38.00;;;5.30;99.90;;;;;;5093716;28;20457;-73
2023/12/15 03:44:30;;;;;;;87.97;35.85;;;5.30;99.90;;;;;;5093770;28;20069;-72
2023/12/15 03:46:56;;;;;;;103.43;38.78;;;5.40;99.90;;;;;;5093749;28;20059;-73
2023/12/15 03:49:21;;;;;;;92.32;37.13;;;5.40;99.90;;;;;;5093548;28;20103;-73
2023/12/15 03:51:47;;;;;;;98.75;38.92;;;5.40;99.90;;;;;;5093472;28;20500;-72
2023/12/15 03:54:12;;;;;;;95.30;36.90;;;5.40;99.90;;;;;;5092578;28;20072;-73
2023/12/15 03:56:38;;;;;;;91.22;38.00;;;5.50;99.90;;;;;;5093598;28;20164;-73
2023/12/15 03:59:03;;;;;;;93.72;37.95;;;5.50;99.90;;;;;;5093521;28;20028;-72
2023/12/15 04:01:29;;;;;;;98.90;38.45;;;5.50;99.90;;;;;;5093353;28;20031;-73
2023/12/15 04:03:56;;;;;;;92.90;38.88;;;5.50;99.90;;;;;;5093572;28;20107;-72
2023/12/15 04:06:21;;;;;;;96.38;37.63;;;5.60;99.90;;;;;;5093408;28;20398;-72
2023/12/15 04:08:47;;;;;;;97.65;39.97;;;5.70;99.90;;;;;;5093049;28;20028;-73
2023/12/15 04:11:16;;;;;;;89.70;37.97;;;5.60;99.90;;;;;;5093600;28;20036;-73
2023/12/15 04:13:41;;;;;;;90.18;36.67;;;5.60;99.90;;;;;;5093349;28;20032;-73
2023/12/15 04:16:07;;;;;;;91.65;37.33;;;5.60;99.90;;;;;;5093406;28;20084;-73
2023/12/15 04:18:33;;;;;;;87.63;35.97;;;5.60;99.90;;;;;;5093328;28;20162;-74
2023/12/15 04:21:00;;;;;;;86.15;38.53;;;5.60;99.90;;;;;;5093061;28;20028;-73
2023/12/15 04:23:26;;;;;;;84.28;36.45;;;5.70;99.90;;;;;;5093297;28;20028;-74
2023/12/15 04:25:51;;;;;;;94.95;38.38;;;5.70;99.90;;;;;;5093296;28;20036;-73
2023/12/15 04:28:17;;;;;;;79.40;35.35;;;5.70;99.90;;;;;;5093491;28;20027;-73
2023/12/15 04:30:42;;;;;;;91.72;37.63;;;5.70;99.90;;;;;;5093349;28;20397;-73
2023/12/15 04:33:08;;;;;;;93.53;35.85;;;5.70;99.90;;;;;;5092890;28;20032;-73
2023/12/15 04:35:34;;;;;;;92.38;37.67;;;5.70;99.90;;;;;;5093255;28;20027;-73
2023/12/15 04:37:59;;;;;;;78.03;36.05;;;5.70;99.90;;;;;;5092802;28;20044;-73
2023/12/15 04:40:25;;;;;;;93.15;37.90;;;5.70;99.90;;;;;;5093284;28;20040;-72
2023/12/15 04:42:50;;;;;;;86.18;37.75;;;5.70;99.90;;;;;;5092904;28;20024;-73
2023/12/15 04:45:16;;;;;;;93.82;39.92;;;5.80;99.90;;;;;;5093114;28;20032;-73
2023/12/15 04:47:42;;;;;;;90.70;40.88;;;5.80;99.90;;;;;;5093003;28;20036;-73
2023/12/15 04:50:08;;;;;;;91.93;38.90;;;5.80;99.90;;;;;;5093111;28;20040;-73
2023/12/15 04:52:34;;;;;;;98.60;39.80;;;5.80;99.90;;;;;;5092932;28;20433;-73
2023/12/15 04:55:00;;;;;;;106.18;40.40;;;5.80;99.90;;;;;;5093024;28;20032;-73
2023/12/15 04:57:25;;;;;;;98.63;38.60;;;5.80;99.90;;;;;;5093109;28;20394;-74
2023/12/15 04:59:51;;;;;;;95.65;39.80;;;5.80;99.90;;;;;;5093138;28;20020;-74
2023/12/15 05:02:16;;;;;;;94.28;37.88;;;5.90;99.90;;;;;;5093026;28;20492;-73
2023/12/15 05:04:42;;;;;;;93.40;38.60;;;5.90;99.90;;;;;;5092542;28;20035;-74
2023/12/15 05:07:07;;;;;;;97.88;39.58;;;5.90;99.90;;;;;;5096551;28;20028;-73
2023/12/15 05:09:33;;;;;;;94.30;38.92;;;5.90;99.90;;;;;;5096577;28;20036;-73
2023/12/15 05:11:58;;;;;;;95.38;39.30;;;5.90;99.90;;;;;;5096240;28;20393;-73
2023/12/15 05:14:24;;;;;;;86.03;40.40;;;5.90;99.90;;;;;;5096729;28;20022;-73
2023/12/15 05:16:49;;;;;;;91.03;38.10;;;6.00;99.90;;;;;;5096708;28;20477;-73
2023/12/15 05:19:15;;;;;;;92.25;40.10;;;6.00;99.90;;;;;;5096607;28;20423;-73
2023/12/15 05:21:41;;;;;;;95.72;38.35;;;5.90;99.90;;;;;;5096553;28;20089;-73
2023/12/15 05:24:06;;;;;;;94.15;39.53;;;6.00;99.90;;;;;;5096474;28;20389;-74
2023/12/15 05:26:32;;;;;;;93.85;38.67;;;6.00;99.90;;;;;;5096491;28;20390;-73
2023/12/15 05:28:57;;;;;;;91.18;38.90;;;6.00;99.90;;;;;;5096365;28;20070;-73
2023/12/15 05:31:23;;;;;;;90.45;40.08;;;6.00;99.90;;;;;;5096404;28;20491;-73
2023/12/15 05:33:48;;;;;;;98.28;39.30;;;6.00;99.90;;;;;;5096225;28;20016;-72
2023/12/15 05:36:18;;;;;;;87.30;39.13;;;6.00;99.90;;;;;;5096035;28;20082;-73
2023/12/15 05:38:45;;;;;;;89.18;39.25;;;6.00;99.90;;;;;;5096106;28;20473;-73
2023/12/15 05:41:10;;;;;;;92.32;38.65;;;6.10;99.90;;;;;;5095836;28;20034;-73
2023/12/15 05:43:36;;;;;;;84.32;38.08;;;6.10;99.90;;;;;;5096156;28;20110;-73
2023/12/15 05:46:02;;;;;;;97.80;39.72;;;6.10;99.90;;;;;;5095769;28;20115;-73
2023/12/15 05:48:27;;;;;;;95.93;38.85;;;6.20;99.90;;;;;;5096117;28;20024;-73
2023/12/15 05:50:53;;;;;;;102.68;41.88;;;6.10;99.90;;;;;;5095841;28;20028;-73
2023/12/15 05:53:19;;;;;;;92.40;39.60;;;;;;;;;;5095775;28;20036;-72
2023/12/15 05:55:45;;;;;;;93.13;39.30;;;;;;;;;;5096001;28;20115;-73
2023/12/15 05:58:11;;;;;;;92.03;38.47;;;;;;;;;;5095358;28;20067;-73
2023/12/15 06:00:36;;;;;;;103.30;39.78;;;6.30;99.90;;;;;;5095792;28;20031;-73
2023/12/15 06:03:02;;;;;;;98.22;39.35;;;6.30;99.90;;;;;;5095783;28;20070;-73
2023/12/15 06:05:28;;;;;;;101.63;40.97;;;6.20;99.90;;;;;;5095522;28;20024;-73
2023/12/15 06:07:53;;;;;;;103.45;40.42;;;6.20;99.90;;;;;;5095737;28;20529;-72
2023/12/15 06:10:19;;;;;;;99.93;41.42;;;6.30;99.90;;;;;;5095904;28;20070;-74
2023/12/15 06:12:45;;;;;;;112.13;42.45;;;6.20;99.90;;;;;;5095195;28;20031;-73
2023/12/15 06:15:11;;;;;;;104.15;42.08;;;6.20;99.90;;;;;;5095242;28;20025;-73
2023/12/15 06:17:36;;;;;;;112.50;42.33;;;6.30;99.90;;;;;;5094487;28;20024;-73
2023/12/15 06:20:02;;;;;;;115.75;43.78;;;6.30;99.90;;;;;;5095474;28;20047;-73
2023/12/15 06:22:28;;;;;;;121.18;44.17;;;6.40;99.90;;;;;;5095385;28;20054;-73
2023/12/15 06:24:53;;;;;;;122.43;44.33;;;6.30;99.90;;;;;;5095259;28;20032;-73
2023/12/15 06:27:19;;;;;;;127.20;45.88;;;6.40;99.90;;;;;;5095369;28;20093;-73
2023/12/15 06:29:44;;;;;;;129.38;45.83;;;6.40;99.90;;;;;;5095151;28;20034;-73
2023/12/15 06:32:12;;;;;;;127.68;44.53;;;6.40;99.90;;;;;;5094920;28;20401;-73
2023/12/15 06:34:42;;;;;;;126.40;45.53;;;6.30;99.90;;;;;;5094802;28;20044;-73
2023/12/15 06:37:07;;;;;;;121.45;44.65;;;6.40;99.90;;;;;;5094838;28;20525;-73
2023/12/15 06:39:33;;;;;;;128.15;46.97;;;6.40;99.90;;;;;;5094613;28;20024;-73
2023/12/15 06:41:58;;;;;;;139.60;48.15;;;6.40;99.90;;;;;;5094861;28;20031;-73
2023/12/15 06:44:24;;;;;;;142.60;48.75;;;6.40;99.90;;;;;;5094702;28;20031;-73
2023/12/15 06:46:50;;;;;;;144.57;49.42;;;6.40;99.90;;;;;;5094856;28;20040;-73
2023/12/15 06:49:17;;;;;;;139.70;48.55;;;6.50;99.90;;;;;;5094726;28;20024;-73
2023/12/15 06:51:43;;;;;;;140.80;49.05;;;6.50;99.90;;;;;;5094658;28;20084;-74
2023/12/15 06:54:09;;;;;;;156.82;50.70;;;6.40;99.90;;;;;;5094443;28;20099;-73
2023/12/15 06:56:38;;;;;;;145.05;49.47;;;6.50;99.90;;;;;;5094630;28;20035;-73
2023/12/15 06:59:04;;;;;;;154.35;51.13;;;6.50;99.90;;;;;;5094222;28;20035;-73
2023/12/15 07:01:29;;;;;;;158.38;49.97;;;6.50;99.90;;;;;;5094276;28;20028;-73
2023/12/15 07:03:55;;;;;;;160.82;51.42;;;6.50;99.90;;;;;;5084473;28;20032;-73
2023/12/15 07:06:20;;;;;;;168.65;55.85;;;6.50;99.90;;;;;;5074532;28;20031;-73
2023/12/15 07:08:50;;;;;;;169.68;56.83;;;6.50;99.90;;;;;;5074203;28;20039;-73
2023/12/15 07:11:16;;;;;;;177.05;55.80;;;6.50;99.90;;;;;;5074211;28;20485;-73
2023/12/15 07:13:41;;;;;;;164.73;54.75;;;6.50;99.90;;;;;;5073839;28;20067;-73
2023/12/15 07:16:07;;;;;;;176.75;56.88;;;6.50;99.90;;;;;;5073651;28;20476;-74
2023/12/15 07:18:33;;;;;;;183.55;57.47;;;6.50;99.90;;;;;;5073667;28;20371;-73
2023/12/15 07:20:59;;;;;;;189.23;58.97;;;6.50;99.90;;;;;;5073491;28;20108;-74
2023/12/15 07:23:24;;;;;;;202.95;57.55;;;6.50;99.90;;;;;;5073184;28;20056;-73
2023/12/15 07:25:50;;;;;;;207.75;60.92;;;6.60;99.90;;;;;;5082931;28;20481;-74
2023/12/15 07:28:15;;;;;;;192.85;58.45;;;6.60;99.90;;;;;;5085650;28;20509;-74
2023/12/15 07:30:41;;;;;;;195.23;59.60;;;6.60;99.90;;;;;;5073949;28;20390;-74
2023/12/15 07:33:08;;;;;;;219.25;60.63;;;6.50;99.90;;;;;;5073504;28;20036;-73
2023/12/15 07:35:33;;;;;;;208.70;58.53;;;6.60;99.90;;;;;;5073704;28;20021;-73
2023/12/15 07:37:59;;;;;;;197.43;58.65;;;6.60;99.90;;;;;;5073362;28;20055;-73
2023/12/15 07:40:25;;;;;;;206.20;60.60;;;6.60;99.90;;;;;;5073784;28;20039;-74
2023/12/15 07:42:50;;;;;;;214.30;66.07;;;6.60;99.90;;;;;;5073697;28;20486;-73
2023/12/15 07:45:16;;;;;;;237.85;81.43;;;6.60;99.90;;;;;;5073654;28;20070;-73
2023/12/15 07:47:41;;;;;;;230.63;72.22;;;6.60;99.90;;;;;;5073569;28;20094;-73
2023/12/15 07:50:07;;;;;;;239.90;79.30;;;6.70;99.90;;;;;;5073541;28;20036;-73
2023/12/15 07:52:33;;;;;;;239.73;72.43;;;6.80;99.90;;;;;;5073248;28;20119;-74
2023/12/15 07:54:58;;;;;;;257.05;75.15;;;6.70;99.90;;;;;;5073565;28;20461;-73
2023/12/15 07:57:24;;;;;;;280.33;96.43;;;;;;;;;;5073435;28;20390;-73
2023/12/15 07:59:50;;;;;;;281.38;93.20;;;;;;;;;;5073180;28;20033;-74
2023/12/15 08:02:19;;;;;;;236.77;68.00;;;;;;;;;;5073610;28;20033;-74
2023/12/15 08:04:45;;;;;;;256.48;68.70;;;;;;;;;;5073113;28;20032;-74
2023/12/15 08:07:11;;;;;;;279.48;73.30;;;;;;;;;;5073342;28;20040;-73
2023/12/15 08:09:37;;;;;;;260.75;75.82;;;;;;;;;;5072905;28;20025;-74
2023/12/15 08:12:03;;;;;;;276.25;73.05;;;;;;;;;;5073193;28;20028;-74
2023/12/15 08:14:29;;;;;;;264.95;65.53;;;;;;;;;;5073161;28;20021;-74
2023/12/15 08:16:55;;;;;;;257.08;67.97;;;;;;;;;;5073286;28;20489;-74
2023/12/15 08:19:21;;;;;;;248.15;64.32;;;7.00;99.90;;;;;;5073261;28;20016;-73
2023/12/15 08:21:48;;;;;;;275.50;66.35;;;6.90;99.90;;;;;;5072840;28;20059;-73
2023/12/15 08:24:14;;;;;;;267.65;67.07;;;6.90;99.90;;;;;;5073122;28;20060;-74
2023/12/15 08:26:40;;;;;;;262.02;65.45;;;;;;;;;;5073148;28;20035;-74
2023/12/15 08:29:06;;;;;;;256.52;63.65;;;;;;;;;;5073134;28;20028;-74
2023/12/15 08:31:32;;;;;;;260.23;63.83;;;;;;;;;;5073044;28;20119;-73
2023/12/15 08:33:57;;;;;;;245.48;63.70;;;;;;;;;;5073175;28;20028;-73
2023/12/15 08:36:24;;;;;;;246.52;63.78;;;;;;;;;;5072829;28;20493;-74
2023/12/15 08:38:50;;;;;;;238.25;63.38;;;;;;;;;;5073161;28;20118;-73
2023/12/15 08:41:15;;;;;;;234.10;61.15;;;7.00;99.90;;;;;;5075133;28;20522;-73
2023/12/15 08:43:41;;;;;;;230.73;61.35;;;7.00;99.90;;;;;;5080857;28;20473;-74
2023/12/15 08:46:06;;;;;;;234.80;61.25;;;7.00;99.90;;;;;;5087733;28;20032;-73
2023/12/15 08:48:32;;;;;;;233.90;60.90;;;7.00;99.90;;;;;;5096862;28;20024;-73
2023/12/15 08:50:58;;;;;;;238.77;60.30;;;7.10;99.90;;;;;;5097173;28;20039;-73
2023/12/15 08:53:23;;;;;;;262.45;77.15;;;7.10;99.90;;;;;;5096793;28;20028;-73
2023/12/15 08:55:49;;;;;;;320.55;109.07;;;7.00;99.90;;;;;;5097010;28;20363;-73
2023/12/15 08:58:15;;;;;;;303.48;107.50;;;7.10;99.90;;;;;;5097005;28;20032;-73
2023/12/15 09:00:40;;;;;;;236.48;70.72;;;7.10;99.90;;;;;;5096947;28;20506;-74
2023/12/15 09:03:07;;;;;;;252.52;85.30;;;7.10;99.90;;;;;;5096784;28;20032;-74
2023/12/15 09:05:33;;;;;;;201.85;60.75;;;7.20;99.90;;;;;;5096930;28;20028;-74
2023/12/15 09:08:00;;;;;;;201.15;59.08;;;7.30;99.90;;;;;;5096871;28;20039;-74
2023/12/15 09:10:26;;;;;;;195.77;55.97;;;7.20;99.90;;;;;;5096695;28;20020;-73
2023/12/15 09:12:51;;;;;;;207.02;60.60;;;7.30;99.90;;;;;;5096544;28;20446;-73
2023/12/15 09:15:17;;;;;;;180.20;56.83;;;7.20;99.90;;;;;;5096697;28;20119;-73
2023/12/15 09:17:43;;;;;;;192.60;57.67;;;7.30;99.90;;;;;;5096562;28;20067;-74
2023/12/15 09:20:10;;;;;;;182.57;55.70;;;7.40;99.90;;;;;;5096632;28;20046;-73
2023/12/15 09:22:36;;;;;;;179.07;53.38;;;7.40;99.90;;;;;;5096471;28;20115;-72
2023/12/15 09:25:02;;;;;;;164.27;53.03;;;7.40;99.90;;;;;;5096527;28;20504;-73
2023/12/15 09:27:28;;;;;;;187.00;65.88;;;7.40;99.90;;;;;;5096486;28;20028;-73
2023/12/15 09:29:53;;;;;;;192.60;77.63;;;7.50;99.90;;;;;;5096328;28;20024;-72
2023/12/15 09:32:20;;;;;;;195.23;74.07;;;7.40;99.90;;;;;;5096349;28;20024;-73
2023/12/15 09:34:46;;;;;;;174.93;59.80;;;7.40;99.90;;;;;;5096684;28;20071;-72
2023/12/15 09:37:12;;;;;;;171.38;55.72;;;7.60;99.90;;;;;;5096292;28;20133;-72
2023/12/15 09:39:38;;;;;;;156.07;52.20;;;7.60;99.90;;;;;;5096297;28;20042;-74
2023/12/15 09:42:04;;;;;;;150.85;49.88;;;7.50;99.90;;;;;;5096182;28;20024;-74
2023/12/15 09:44:30;;;;;;;142.60;49.28;;;7.50;99.90;;;;;;5096160;28;20024;-72
2023/12/15 09:46:57;;;;;;;137.05;48.97;;;7.50;99.90;;;;;;5096066;28;20116;-74
2023/12/15 09:49:24;;;;;;;135.45;44.65;;;7.60;99.90;;;;;;5096068;28;20386;-74
2023/12/15 09:51:50;;;;;;;130.07;44.92;;;7.70;99.90;;;;;;5094627;28;20234;-74
2023/12/15 09:54:17;;;;;;;120.70;44.42;;;7.70;99.90;;;;;;5095387;28;20085;-73
2023/12/15 09:56:43;;;;;;;114.85;45.00;;;7.70;99.90;;;;;;5095792;28;20473;-74
2023/12/15 09:59:09;;;;;;;122.22;43.30;;;7.80;99.90;;;;;;5095595;28;20020;-73
2023/12/15 10:01:37;;;;;;;112.43;44.88;;;;;;;;;;5095786;28;20069;-73
2023/12/15 10:04:04;;;;;;;119.53;45.85;;;7.80;99.90;;;;;;5095591;28;20545;-74
2023/12/15 10:06:35;;;;;;;106.57;42.78;;;7.80;99.90;;;;;;5095236;28;20020;-73
2023/12/15 10:09:02;;;;;;;112.35;41.97;;;7.70;99.90;;;;;;5095697;28;20390;-73
2023/12/15 10:11:32;;;;;;;112.10;42.30;;;7.80;99.90;;;;;;5095192;28;20024;-74
2023/12/15 10:13:57;;;;;;;115.70;44.17;;;7.80;99.90;;;;;;5095515;28;20027;-73
2023/12/15 10:16:27;;;;;;;114.72;44.50;;;7.80;99.90;;;;;;5095533;28;20125;-74
2023/12/15 10:18:53;;;;;;;101.43;42.97;;;7.80;99.90;;;;;;5095330;28;20032;-73
2023/12/15 10:21:18;;;;;;;111.47;45.92;;;7.90;99.90;;;;;;5095453;28;20024;-72
2023/12/15 10:23:44;;;;;;;116.32;50.90;;;7.90;99.90;;;;;;5094789;28;20035;-72
2023/12/15 10:26:09;;;;;;;106.05;46.83;;;7.90;99.90;;;;;;5095238;28;20020;-73
2023/12/15 10:28:38;;;;;;;100.45;42.17;;;7.90;99.90;;;;;;5095080;28;20482;-73
2023/12/15 10:31:04;;;;;;;94.55;39.15;;;7.80;99.90;;;;;;5094935;28;20547;-73
2023/12/15 10:33:30;;;;;;;107.78;42.53;;;7.90;99.90;;;;;;5094732;28;20024;-73
2023/12/15 10:35:57;;;;;;;100.38;41.30;;;7.90;99.90;;;;;;5094594;28;20500;-74
2023/12/15 10:38:23;;;;;;;102.57;41.33;;;7.90;99.90;;;;;;5093987;28;20055;-72
2023/12/15 10:40:48;;;;;;;102.53;41.10;;;7.90;99.90;;;;;;5087008;28;20036;-73
2023/12/15 10:43:14;;;;;;;101.03;40.13;;;7.90;99.90;;;;;;5094152;28;20571;-73
2023/12/15 10:45:39;;;;;;;97.70;38.72;;;7.90;99.90;;;;;;5094875;28;20127;-73
2023/12/15 10:48:07;;;;;;;100.50;40.97;;;7.90;99.90;;;;;;5094771;28;20036;-73
2023/12/15 10:50:33;;;;;;;107.55;42.35;;;7.90;99.90;;;;;;5094507;28;20482;-72
2023/12/15 10:53:00;;;;;;;127.35;53.03;;;7.90;99.90;;;;;;5094557;28;20092;-73
2023/12/15 10:55:28;;;;;;;157.85;69.35;;;7.90;99.90;;;;;;5094726;28;20020;-73
2023/12/15 10:57:53;;;;;;;168.23;76.50;;;8.00;99.90;;;;;;5094550;28;20020;-73
2023/12/15 11:00:19;;;;;;;133.23;56.33;;;8.00;99.90;;;;;;5094669;28;20024;-73
2023/12/15 11:02:46;;;;;;;117.60;48.20;;;8.10;99.90;;;;;;5093835;28;20385;-73
2023/12/15 11:05:12;;;;;;;117.72;45.47;;;8.10;99.90;;;;;;5094147;28;20028;-73
2023/12/15 11:07:39;;;;;;;115.28;47.05;;;8.10;99.90;;;;;;5094141;28;20111;-73
2023/12/15 11:10:09;;;;;;;116.85;45.70;;;8.00;99.90;;;;;;5094075;28;20482;-73
2023/12/15 11:12:39;;;;;;;111.22;45.35;;;8.10;99.90;;;;;;5094123;28;20525;-73
2023/12/15 11:15:13;;;;;;;110.68;44.83;;;8.10;99.90;;;;;;5094229;28;20390;-74
2023/12/15 11:17:43;;;;;;;116.13;46.13;;;8.10;99.90;;;;;;5094145;28;20054;-73
2023/12/15 11:20:12;;;;;;;118.63;45.95;;;8.10;99.90;;;;;;5094215;28;20496;-73
2023/12/15 11:22:59;;;;;;;112.32;44.42;;;8.10;99.90;;;;;;5094385;28;20028;-73
2023/12/15 11:25:30;;;;;;;107.68;42.75;;;8.10;99.90;;;;;;5093309;28;20461;-73
2023/12/15 11:28:17;;;;;;;113.40;44.15;;;8.10;99.90;;;;;;5093284;28;20067;-72
2023/12/15 11:30:46;;;;;;;120.13;45.97;;;8.10;99.90;;;;;;5093103;28;20060;-72
2023/12/15 11:36:07;;;;;;;113.95;44.40;;;8.20;99.90;;;;;;5089840;27;20448;-72
2023/12/15 11:38:34;;;;;;;108.10;42.35;;;8.30;99.90;;;;;;5089927;28;20473;-73
2023/12/15 11:41:01;;;;;;;114.72;43.03;;;8.30;99.90;;;;;;5090327;28;20028;-72
2023/12/15 11:43:31;;;;;;;132.68;45.47;;;8.30;99.90;;;;;;5090757;28;20020;-72
2023/12/15 11:45:57;;;;;;;117.82;44.50;;;8.30;99.90;;;;;;5090568;28;20028;-72
2023/12/15 11:48:23;;;;;;;118.75;45.00;;;8.30;99.90;;;;;;5090619;28;20391;-72
2023/12/15 11:50:49;;;;;;;118.07;45.13;;;8.30;99.90;;;;;;5090896;28;20478;-72
2023/12/15 11:53:16;;;;;;;113.00;44.10;;;8.30;99.90;;;;;;5090054;28;20073;-71
2023/12/15 11:55:44;;;;;;;128.07;49.22;;;8.30;99.90;;;;;;5089872;28;20127;-72
2023/12/15 11:58:09;;;;;;;113.05;45.03;;;8.30;99.90;;;;;;5090435;28;20020;-72
2023/12/15 12:00:35;;;;;;;117.47;42.47;;;8.30;99.90;;;;;;5090003;28;20090;-72
2023/12/15 12:03:00;;;;;;;121.30;44.53;;;8.30;99.90;;;;;;5090433;28;20021;-73
2023/12/15 12:05:27;;;;;;;112.15;44.03;;;8.50;99.90;;;;;;5090441;28;20028;-73
2023/12/15 12:07:53;;;;;;;110.38;43.20;;;8.40;99.90;;;;;;5090384;28;20367;-72
2023/12/15 12:10:18;;;;;;;120.20;44.58;;;8.50;99.90;;;;;;5090173;28;20035;-73
2023/12/15 12:12:44;;;;;;;121.78;44.85;;;8.50;99.90;;;;;;5090180;28;20035;-73
2023/12/15 12:15:10;;;;;;;109.97;43.05;;;8.50;99.90;;;;;;5089881;28;20035;-74
2023/12/15 12:17:38;;;;;;;119.03;44.05;;;8.50;99.90;;;;;;5090130;28;20028;-73
2023/12/15 12:20:06;;;;;;;123.07;45.35;;;8.50;99.90;;;;;;5090020;28;20119;-73
2023/12/15 12:22:33;;;;;;;112.05;43.10;;;8.50;99.90;;;;;;5090053;28;20024;-73
2023/12/15 12:24:59;;;;;;;108.05;42.90;;;8.50;99.90;;;;;;5090035;28;20032;-73
2023/12/15 12:27:32;;;;;;;107.10;42.75;;;8.50;99.90;;;;;;5090009;28;20044;-73
2023/12/15 12:29:59;;;;;;;115.22;43.53;;;8.50;99.90;;;;;;5089808;28;20035;-73
2023/12/15 12:32:25;;;;;;;106.40;42.05;;;8.50;99.90;;;;;;5089904;28;20482;-73
2023/12/15 12:34:51;;;;;;;116.13;43.92;;;8.50;99.90;;;;;;5089415;28;20099;-74
2023/12/15 12:37:17;;;;;;;108.72;42.58;;;8.50;99.90;;;;;;5089610;28;20052;-73
2023/12/15 12:39:42;;;;;;;106.03;41.25;;;8.60;99.90;;;;;;5089237;28;20017;-73